Time;durP1;ratioP1;P1;durP2;ratioP2;P2;SDS_P1;SDS_P2;PMS_P1;PMS_P2;Temp;Humidity;BMP_temperature;BMP_pressure;BME280_temperature;BME280_humidity;BME280_pressure;Samples;Min_cycle;Max_cycle;Signal;HPM_P1;HPM_P2
2022/08/04 00:00:06;;;;;;;9.93;4.20;;;;;;;23.02;75.67;101118.16;5054050;28;20079;-57
2022/08/04 00:02:51;;;;;;;5.82;3.88;;;;;;;23.04;75.84;101105.56;5054199;28;20519;-58
2022/08/04 00:05:31;;;;;;;10.65;4.32;;;;;;;23.08;75.20;101102.59;5053697;28;20467;-58
2022/08/04 00:07:59;;;;;;;9.07;4.05;;;;;;;23.07;75.67;101110.72;5053893;28;20033;-58
2022/08/04 00:10:26;;;;;;;8.30;4.15;;;;;;;23.04;75.77;101105.56;5053980;28;20119;-58
2022/08/04 00:12:54;;;;;;;8.23;4.10;;;;;;;22.96;76.39;101107.84;5053949;28;20431;-57
2022/08/04 00:15:19;;;;;;;8.98;4.43;;;;;;;22.95;76.24;101101.66;5053767;28;20039;-58
2022/08/04 00:17:52;;;;;;;10.63;4.32;;;;;;;22.97;75.98;101094.41;5053566;28;20037;-57
2022/08/04 00:20:19;;;;;;;9.18;4.03;;;;;;;22.89;76.49;101104.69;5053681;28;20029;-58
2022/08/04 00:22:47;;;;;;;9.52;3.65;;;;;;;22.87;76.61;101095.91;5053602;28;20094;-58
2022/08/04 00:25:12;;;;;;;10.10;3.55;;;;;;;22.78;76.66;101093.81;5053630;28;20033;-58
2022/08/04 00:27:38;;;;;;;9.27;3.78;;;;;;;22.77;76.46;101090.28;5053354;28;20049;-58
2022/08/04 00:30:05;;;;;;;7.80;3.65;;;;;;;22.69;77.12;101088.97;5053327;28;20036;-57
2022/08/04 00:32:30;;;;;;;5.82;3.60;;;;;;;22.75;76.89;101091.28;5053254;28;20471;-58
2022/08/04 00:34:57;;;;;;;7.97;3.80;;;;;;;22.74;76.56;101087.75;5053562;28;20025;-57
2022/08/04 00:37:24;;;;;;;6.88;3.70;;;;;;;22.68;77.13;101089.94;5053594;28;20029;-57
2022/08/04 00:39:52;;;;;;;6.13;3.63;;;;;;;22.67;76.46;101080.22;5053254;28;20483;-58
2022/08/04 00:42:43;;;;;;;7.57;3.55;;;;;;;22.64;76.73;101077.75;5053325;28;20171;-58
2022/08/04 00:45:16;;;;;;;8.35;3.85;;;;;;;22.64;76.34;101083.06;5053071;28;20110;-57
2022/08/04 00:47:41;;;;;;;7.75;3.92;;;;;;;22.60;76.97;101076.19;5053274;28;20420;-58
2022/08/04 00:50:17;;;;;;;7.77;3.73;;;;;;;22.67;76.45;101074.88;5053140;28;20061;-57
2022/08/04 00:52:45;;;;;;;9.50;3.33;;;;;;;22.72;75.65;101073.63;5052512;28;20452;-58
2022/08/04 00:55:29;;;;;;;9.88;3.70;;;;;;;22.78;74.71;101069.78;5052986;28;20040;-58
2022/08/04 00:58:39;;;;;;;12.02;3.83;;;;;;;22.87;74.23;101067.41;5052796;28;20021;-58
2022/08/04 01:01:07;;;;;;;9.75;3.63;;;;;;;22.85;74.67;101069.34;5010399;28;20057;-58
2022/08/04 01:03:53;;;;;;;9.27;3.70;;;;;;;22.81;74.49;101070.47;5047110;28;20053;-58
2022/08/04 01:06:47;;;;;;;7.82;3.67;;;;;;;22.79;74.55;101066.16;5052755;28;20132;-57
2022/08/04 01:09:15;;;;;;;8.80;3.63;;;;;;;22.77;74.66;101062.72;5052908;28;20322;-57
2022/08/04 01:12:20;;;;;;;7.72;3.25;;;;;;;22.67;74.88;101064.22;5052642;28;20539;-57
2022/08/04 01:15:07;;;;;;;10.63;3.45;;;;;;;22.62;74.67;101058.28;5052173;28;20464;-57
2022/08/04 01:17:56;;;;;;;8.55;3.47;;;;;;;22.76;73.42;101059.16;5052674;28;20451;-58
2022/08/04 01:20:25;;;;;;;8.55;3.53;;;;;;;22.81;73.01;101050.94;5052356;28;20513;-57
2022/08/04 01:23:34;;;;;;;11.07;3.30;;;;;;;22.90;72.23;101050.34;5052488;28;20056;-57
2022/08/04 01:26:29;;;;;;;6.22;3.10;;;;;;;22.89;71.42;101043.28;5052673;28;20615;-58
2022/08/04 01:29:13;;;;;;;10.52;3.50;;;;;;;22.98;70.96;101053.41;5052111;28;20052;-57
2022/08/04 01:31:54;;;;;;;8.02;3.40;;;;;;;23.02;70.50;101048.75;5052459;28;20037;-57
2022/08/04 01:34:22;;;;;;;11.70;3.78;;;;;;;23.03;69.84;101045.13;5051355;28;20095;-58
2022/08/04 01:36:58;;;;;;;9.13;3.28;;;;;;;23.06;70.25;101040.44;5052295;28;20104;-58
2022/08/04 01:39:40;;;;;;;9.10;4.00;;;;;;;23.08;69.40;101035.88;5052260;28;20029;-57
2022/08/04 01:42:07;;;;;;;9.95;3.30;;;;;;;23.05;69.57;101036.06;5052015;28;20116;-57
2022/08/04 01:44:35;;;;;;;13.70;3.75;;;;;;;23.07;69.19;101036.81;5052369;28;20067;-57
2022/08/04 01:47:01;;;;;;;11.13;3.60;;;;;;;23.11;69.11;101033.00;5052014;28;20037;-58
2022/08/04 01:49:31;;;;;;;7.30;3.20;;;;;;;23.09;68.94;101034.06;5051883;28;20040;-58
2022/08/04 01:51:57;;;;;;;7.95;3.05;;;;;;;23.12;68.23;101045.41;5051974;28;20048;-57
2022/08/04 01:54:25;;;;;;;10.65;3.80;;;;;;;23.12;68.37;101037.41;5051945;28;20037;-58
2022/08/04 01:56:52;;;;;;;7.90;2.70;;;;;;;23.13;67.75;101036.44;5051625;28;20593;-58
2022/08/04 01:59:19;;;;;;;7.07;2.80;;;;;;;23.11;68.18;101035.69;5051929;28;20043;-58
2022/08/04 02:01:45;;;;;;;7.35;3.20;;;;;;;23.10;67.89;101025.94;5051786;28;20481;-58
2022/08/04 02:04:15;;;;;;;9.40;3.20;;;;;;;23.10;67.50;101033.97;5051774;28;20119;-58
2022/08/04 02:06:59;;;;;;;13.20;3.10;;;;;;;23.14;67.79;101031.97;5051688;28;20067;-58
2022/08/04 02:09:59;;;;;;;11.05;3.20;;;;;;;23.20;67.20;101029.75;5051751;28;20687;-57
2022/08/04 02:13:06;;;;;;;9.25;2.90;;;;;;;23.17;67.00;101029.97;5037961;28;20076;-57
2022/08/04 02:15:37;;;;;;;9.98;2.90;;;;;;;23.16;66.74;101022.91;5043349;28;20056;-56
2022/08/04 02:18:11;;;;;;;6.28;2.95;;;;;;;23.14;66.59;101022.16;5052064;28;20174;-57
2022/08/04 02:20:44;;;;;;;7.93;2.70;;;;;;;23.12;66.88;101018.72;5051498;28;20036;-57
2022/08/04 02:23:14;;;;;;;10.25;3.03;;;;;;;23.13;66.88;101017.75;5051423;28;20025;-56
2022/08/04 02:25:56;;;;;;;7.90;2.40;;;;;;;23.13;66.69;101014.22;5051393;28;20044;-57
2022/08/04 02:28:24;;;;;;;;;;;;;;;23.14;66.78;101008.78;5051869;28;20052;-57
2022/08/04 02:31:07;;;;;;;7.25;2.55;;;;;;;23.12;66.45;101013.38;5051120;28;19917;-58
2022/08/04 02:33:42;;;;;;;5.80;2.20;;;;;;;23.12;66.47;101005.34;5051589;28;20033;-57
2022/08/04 02:36:09;;;;;;;8.00;2.47;;;;;;;23.11;66.27;101006.31;5051273;28;20432;-57
2022/08/04 02:38:54;;;;;;;7.10;2.63;;;;;;;23.10;66.41;101007.25;5051388;28;20083;-57
2022/08/04 02:41:22;;;;;;;9.10;2.80;;;;;;;23.10;66.36;101007.25;5051383;28;20028;-57
2022/08/04 02:43:48;;;;;;;7.82;2.63;;;;;;;23.09;66.13;101007.34;5051306;28;20083;-58
2022/08/04 02:46:16;;;;;;;12.75;2.63;;;;;;;23.06;66.35;100999.53;5051402;28;20033;-57
2022/08/04 02:48:44;;;;;;;6.97;2.50;;;;;;;23.06;65.77;100992.38;5050967;28;20433;-58
2022/08/04 02:51:12;;;;;;;10.38;2.53;;;;;;;23.06;65.97;100997.72;5051103;28;20040;-58
2022/08/04 02:53:40;;;;;;;9.40;2.58;;;;;;;23.04;66.42;100999.63;5051081;28;20112;-58
2022/08/04 02:56:07;;;;;;;9.15;2.22;;;;;;;23.02;66.51;100990.88;5051370;28;20029;-57
2022/08/04 02:58:34;;;;;;;9.10;2.58;;;;;;;22.98;66.47;100988.50;5051180;28;20040;-57
2022/08/04 03:01:00;;;;;;;10.50;2.45;;;;;;;22.95;66.45;100984.22;5050961;28;20037;-57
2022/08/04 03:04:13;;;;;;;9.70;2.33;;;;;;;22.97;66.70;100981.44;5051320;28;20036;-57
2022/08/04 03:07:01;;;;;;;8.10;2.58;;;;;;;22.97;66.37;100979.63;5051105;28;20033;-57
2022/08/04 03:09:59;;;;;;;7.80;2.45;;;;;;;22.96;66.37;100974.38;5043533;28;20106;-57
2022/08/04 03:12:55;;;;;;;13.18;2.65;;;;;;;22.95;66.09;100984.22;5018324;28;20053;-57
2022/08/04 03:15:56;;;;;;;9.60;3.10;;;;;;;22.97;66.13;100978.78;5054912;28;20126;-57
2022/08/04 03:18:40;;;;;;;9.05;2.38;;;;;;;22.95;66.28;100980.69;5055045;28;20029;-57
2022/08/04 03:21:18;;;;;;;9.07;2.63;;;;;;;22.93;66.22;100980.78;5054927;28;20028;-57
2022/08/04 03:23:49;;;;;;;8.57;2.60;;;;;;;22.91;66.01;100985.34;5054846;28;20037;-57
2022/08/04 03:26:20;;;;;;;12.63;2.63;;;;;;;22.80;66.92;101003.84;5054545;28;20368;-58
2022/08/04 03:29:26;;;;;;;7.53;2.70;;;;;;;22.66;67.10;101007.34;5054713;28;20079;-57
2022/08/04 03:32:28;;;;;;;13.23;2.42;;;;;;;22.55;67.75;101012.44;5054631;28;20037;-58
2022/08/04 03:35:12;;;;;;;;;;;;;;;22.50;67.52;101001.22;5055021;28;20523;-57
2022/08/04 03:37:51;;;;;;;10.57;2.50;;;;;;;22.38;68.56;100984.13;5054410;28;19923;-58
2022/08/04 03:40:34;;;;;;;8.35;2.60;;;;;;;22.35;68.82;100986.97;5054079;28;20426;-57
2022/08/04 03:43:23;;;;;;;10.45;3.28;;;;;;;22.26;69.14;100984.88;5054430;28;20119;-58
2022/08/04 03:46:28;;;;;;;8.10;2.47;;;;;;;22.16;70.11;100992.56;5054235;28;20033;-58
2022/08/04 03:49:37;;;;;;;6.90;2.80;;;;;;;22.10;70.01;100995.59;5053962;28;20060;-57
2022/08/04 03:55:12;;;;;;;11.18;2.88;;;;;;;21.95;71.81;101014.25;5054247;28;20524;-57
2022/08/04 03:57:50;;;;;;;10.45;3.10;;;;;;;21.85;72.26;101017.44;5054180;28;20029;-58
2022/08/04 04:00:26;;;;;;;9.10;3.45;;;;;;;21.75;72.93;101016.25;5054273;28;20471;-58
2022/08/04 04:02:54;;;;;;;10.13;4.45;;;;;;;21.71;73.87;101017.38;5053894;28;20467;-58
2022/08/04 04:05:31;;;;;;;9.30;3.38;;;;;;;21.63;73.95;101019.63;5054000;28;20364;-57
2022/08/04 04:08:28;;;;;;;8.68;3.63;;;;;;;21.54;73.50;101020.97;5053861;28;20439;-57
2022/08/04 04:11:28;;;;;;;11.35;4.03;;;;;;;21.51;73.92;101021.16;5053867;28;20464;-57
2022/08/04 04:14:24;;;;;;;8.63;4.07;;;;;;;21.47;74.44;101035.56;5053554;28;20440;-57
2022/08/04 04:17:28;;;;;;;7.25;4.03;;;;;;;21.45;74.33;101026.84;5053791;28;20042;-57
2022/08/04 04:19:59;;;;;;;10.68;3.92;;;;;;;21.51;75.33;101017.63;5053328;28;20448;-57
2022/08/04 04:22:49;;;;;;;8.90;3.88;;;;;;;21.55;74.59;101027.16;5053734;28;20032;-57
2022/08/04 04:25:35;;;;;;;8.57;3.63;;;;;;;21.60;74.59;101021.59;5053978;28;20029;-57
2022/08/04 04:28:25;;;;;;;11.70;3.92;;;;;;;21.55;75.51;101019.19;5053028;28;20838;-57
2022/08/04 04:31:14;;;;;;;7.97;3.65;;;;;;;21.58;75.43;101020.81;5053235;28;20079;-57
2022/08/04 04:34:01;;;;;;;9.15;3.85;;;;;;;21.55;75.46;101024.50;5053512;28;20186;-57
2022/08/04 04:37:20;;;;;;;10.65;3.60;;;;;;;21.58;74.93;101029.66;5053324;28;20037;-62
2022/08/04 04:40:01;;;;;;;9.52;3.55;;;;;;;21.63;75.33;101026.75;5011113;28;20034;-59
2022/08/04 04:42:43;;;;;;;7.68;3.40;;;;;;;21.65;75.69;101025.69;5052889;28;20417;-59
2022/08/04 04:45:11;;;;;;;10.57;3.92;;;;;;;21.67;75.68;101018.47;5053248;28;20071;-58
2022/08/04 04:47:37;;;;;;;11.18;3.42;;;;;;;21.69;76.05;101021.06;5053073;28;20432;-59
2022/08/04 04:50:22;;;;;;;11.60;3.55;;;;;;;21.73;75.71;101025.28;5053033;28;20029;-59
2022/08/04 04:53:06;;;;;;;8.27;3.28;;;;;;;21.84;75.72;101026.38;5052810;28;20094;-59
2022/08/04 04:55:39;;;;;;;12.20;3.47;;;;;;;21.93;75.92;101027.66;5053064;28;20086;-59
2022/08/04 04:58:07;;;;;;;9.30;3.70;;;;;;;22.02;75.75;101024.47;5052921;28;20424;-60
2022/08/04 05:01:11;;;;;;;10.15;4.00;;;;;;;22.11;74.67;101033.75;5053152;28;20158;-60
2022/08/04 05:04:04;;;;;;;10.15;4.25;;;;;;;22.19;74.85;101039.50;5052828;28;20090;-59
2022/08/04 05:06:32;;;;;;;8.32;3.58;;;;;;;22.22;75.19;101036.66;5052984;28;20037;-60
2022/08/04 05:09:17;;;;;;;9.05;4.10;;;;;;;22.27;74.74;101036.38;5052853;28;20036;-59
2022/08/04 05:12:19;;;;;;;8.70;3.95;;;;;;;22.31;74.82;101035.25;5052759;28;20064;-59
2022/08/04 05:14:47;;;;;;;9.38;4.03;;;;;;;22.32;75.13;101029.84;5051975;28;20029;-59
2022/08/04 05:17:20;;;;;;;11.05;4.50;;;;;;;22.32;75.25;101027.19;5052648;28;20587;-59
2022/08/04 05:19:51;;;;;;;11.07;4.45;;;;;;;22.30;75.38;101029.06;5052585;28;20082;-60
2022/08/04 05:22:24;;;;;;;10.98;4.28;;;;;;;22.41;74.90;101039.94;5052675;28;20037;-59
2022/08/04 05:24:59;;;;;;;12.20;4.10;;;;;;;22.46;75.07;101037.88;5052525;28;20037;-60
2022/08/04 05:27:38;;;;;;;11.82;3.88;;;;;;;22.50;75.92;101044.75;5051567;28;20763;-59
2022/08/04 05:30:05;;;;;;;12.27;4.28;;;;;;;22.51;75.37;101034.94;5052677;28;20730;-60
2022/08/04 05:32:39;;;;;;;7.65;3.85;;;;;;;22.49;75.68;101027.03;5051495;28;20041;-59
2022/08/04 05:35:10;;;;;;;11.15;4.45;;;;;;;22.53;75.36;101025.00;5052223;28;20037;-60
2022/08/04 05:37:39;;;;;;;13.07;4.10;;;;;;;22.62;75.30;101028.94;5052282;28;20334;-59
2022/08/04 05:40:07;;;;;;;16.38;4.15;;;;;;;22.69;74.24;101022.28;5060490;28;20033;-59
2022/08/04 05:42:36;;;;;;;9.13;4.28;;;;;;;22.83;74.74;101019.66;5061970;28;20438;-59
2022/08/04 05:45:02;;;;;;;10.98;4.10;;;;;;;22.81;74.80;101017.09;5060275;28;20029;-60
2022/08/04 05:47:29;;;;;;;10.82;4.25;;;;;;;22.80;75.95;101017.19;5061180;28;20443;-60
2022/08/04 05:49:55;;;;;;;10.70;4.65;;;;;;;22.95;75.07;101018.91;5054591;28;20090;-59
2022/08/04 05:52:23;;;;;;;12.55;4.65;;;;;;;23.00;74.85;101018.63;5054334;28;20036;-59
2022/08/04 05:54:50;;;;;;;8.35;3.95;;;;;;;22.99;74.94;101000.91;5051969;28;20102;-60
2022/08/04 05:57:17;;;;;;;9.38;4.40;;;;;;;23.18;74.22;101022.81;5051864;28;20037;-59
2022/08/04 05:59:45;;;;;;;10.57;4.13;;;;;;;23.22;73.12;101024.31;5053694;28;20471;-59
2022/08/04 06:02:13;;;;;;;11.32;4.75;;;;;;;23.26;72.95;101017.84;5051881;28;20135;-60
2022/08/04 06:04:40;;;;;;;10.23;4.50;;;;;;;23.34;72.64;101022.69;5051818;28;20033;-59
2022/08/04 06:07:07;;;;;;;11.85;4.60;;;;;;;23.41;72.44;101029.34;5051690;28;20106;-59
2022/08/04 06:09:32;;;;;;;11.02;4.93;;;;;;;23.46;71.96;101025.44;5051752;28;20424;-61
2022/08/04 06:12:01;;;;;;;12.02;5.00;;;;;;;23.50;71.48;101020.75;5051273;28;20072;-59
2022/08/04 06:14:31;;;;;;;9.13;5.47;;;;;;;23.59;71.23;101021.03;5051498;28;20036;-59
2022/08/04 06:16:58;;;;;;;11.48;5.45;;;;;;;23.65;71.40;101027.81;5051459;28;20072;-59
2022/08/04 06:19:27;;;;;;;16.30;6.60;;;;;;;23.64;72.46;101030.59;5051616;28;20040;-59
2022/08/04 06:21:55;;;;;;;13.00;5.78;;;;;;;23.57;72.69;101012.25;5051222;28;20040;-59
2022/08/04 06:24:25;;;;;;;14.65;6.47;;;;;;;23.61;72.67;101026.28;5051500;28;20037;-59
2022/08/04 06:26:50;;;;;;;13.60;7.35;;;;;;;23.67;71.84;101023.22;5051243;28;20057;-59
2022/08/04 06:29:29;;;;;;;18.65;7.28;;;;;;;23.65;71.87;101035.84;5051397;28;20041;-59
2022/08/04 06:31:58;;;;;;;20.00;8.40;;;;;;;23.86;71.07;101036.25;5051354;28;20047;-59
2022/08/04 06:34:25;;;;;;;15.02;8.40;;;;;;;23.90;70.39;101033.25;5051698;28;20029;-59
2022/08/04 06:36:52;;;;;;;12.90;7.15;;;;;;;23.98;70.58;101031.91;5051434;28;20033;-59
2022/08/04 06:39:19;;;;;;;15.82;7.55;;;;;;;24.07;69.72;101033.97;5051322;28;20074;-59
2022/08/04 06:41:44;;;;;;;14.52;8.65;;;;;;;24.17;68.79;101043.09;5051385;28;20044;-60
2022/08/04 06:44:11;;;;;;;15.07;8.52;;;;;;;24.34;69.21;101045.53;5052943;28;20032;-59
2022/08/04 06:46:40;;;;;;;16.35;8.20;;;;;;;24.52;67.70;101038.91;5055395;28;20032;-59
2022/08/04 06:49:06;;;;;;;12.38;7.70;;;;;;;24.62;66.86;101044.47;5055220;28;20577;-59
2022/08/04 06:51:34;;;;;;;15.52;7.97;;;;;;;24.69;66.64;101044.94;5055487;28;20360;-59
2022/08/04 06:53:59;;;;;;;13.57;6.88;;;;;;;24.78;66.41;101037.09;5055098;28;20048;-59
2022/08/04 06:56:26;;;;;;;11.57;7.25;;;;;;;24.82;66.05;101048.47;5055444;28;20447;-59
2022/08/04 06:58:53;;;;;;;14.63;7.68;;;;;;;24.84;65.55;101044.72;5055450;28;20061;-59
2022/08/04 07:01:20;;;;;;;17.83;7.53;;;;;;;24.81;65.98;101044.94;5055374;28;20055;-59
2022/08/04 07:03:46;;;;;;;15.20;8.27;;;;;;;24.83;66.17;101048.34;5055185;28;20461;-60
2022/08/04 07:06:12;;;;;;;12.07;7.60;;;;;;;24.77;66.33;101042.56;5055082;28;20037;-60
2022/08/04 07:08:38;;;;;;;15.73;8.30;;;;;;;24.72;66.74;101037.56;5055009;28;20037;-59
2022/08/04 07:11:04;;;;;;;19.52;8.95;;;;;;;24.62;68.13;101042.66;5054926;28;20029;-59
2022/08/04 07:13:31;;;;;;;15.43;8.50;;;;;;;24.58;67.70;101049.22;5054670;28;20355;-60
2022/08/04 07:15:58;;;;;;;11.68;8.15;;;;;;;24.74;67.94;101048.16;5054694;28;20036;-59
2022/08/04 07:18:23;;;;;;;16.08;7.88;;;;;;;24.77;67.88;101050.59;5057621;28;20036;-59
2022/08/04 07:20:49;;;;;;;14.40;7.45;;;;;;;24.81;68.59;101044.94;5074678;28;20528;-59
2022/08/04 07:23:20;;;;;;;14.70;7.55;;;;;;;24.80;68.25;101048.56;5066128;28;20040;-60
2022/08/04 07:25:53;;;;;;;15.65;8.13;;;;;;;24.69;68.29;101052.97;5060056;28;20040;-58
2022/08/04 07:28:20;;;;;;;12.95;8.13;;;;;;;24.64;68.88;101056.81;5068688;28;20139;-59
2022/08/04 07:30:47;;;;;;;14.18;8.40;;;;;;;24.55;69.15;101057.44;5074366;28;20032;-59
2022/08/04 07:33:15;;;;;;;15.15;9.02;;;;;;;24.59;69.51;101066.97;5074585;28;20135;-58
2022/08/04 07:35:40;;;;;;;20.30;9.10;;;;;;;24.55;69.25;101065.47;5074564;28;20060;-59
2022/08/04 07:38:06;;;;;;;14.02;9.27;;;;;;;24.54;68.94;101055.72;5074379;28;20125;-58
2022/08/04 07:40:31;;;;;;;14.50;8.43;;;;;;;24.57;69.21;101062.69;5074467;28;20052;-59
2022/08/04 07:42:58;;;;;;;18.23;9.93;;;;;;;24.64;68.89;101053.25;5074424;28;20060;-58
2022/08/04 07:45:24;;;;;;;16.73;9.70;;;;;;;24.69;68.72;101059.16;5074585;28;20115;-56
2022/08/04 07:47:49;;;;;;;14.57;9.85;;;;;;;24.77;68.89;101059.47;5074188;28;20024;-53
2022/08/04 07:50:16;;;;;;;15.85;9.38;;;;;;;24.90;68.42;101055.00;5074021;28;20041;-59
2022/08/04 07:52:42;;;;;;;13.55;9.07;;;;;;;25.08;68.00;101054.72;5074189;28;20040;-58
2022/08/04 07:55:09;;;;;;;12.25;8.93;;;;;;;25.13;66.95;101053.41;5073485;28;20040;-58
2022/08/04 07:57:34;;;;;;;12.82;8.10;;;;;;;25.16;67.59;101055.00;5057139;28;20047;-59
2022/08/04 07:59:59;;;;;;;11.93;8.00;;;;;;;25.19;67.28;101063.69;5054192;28;20041;-58
2022/08/04 08:02:25;;;;;;;16.75;9.38;;;;;;;25.18;67.47;101063.81;5053907;28;20036;-58
2022/08/04 08:04:51;;;;;;;17.08;10.15;;;;;;;25.14;67.46;101071.19;5053664;28;20462;-58
2022/08/04 08:07:19;;;;;;;14.23;9.55;;;;;;;25.13;68.85;101069.47;5053959;28;20214;-58
2022/08/04 08:09:44;;;;;;;13.98;8.70;;;;;;;25.16;69.24;101074.63;5053908;28;20445;-58
2022/08/04 08:12:10;;;;;;;14.65;9.70;;;;;;;25.19;68.88;101074.41;5054092;28;20047;-58
2022/08/04 08:14:36;;;;;;;18.33;9.70;;;;;;;25.19;69.49;101079.78;5053941;28;20241;-58
2022/08/04 08:17:03;;;;;;;12.23;8.60;;;;;;;25.23;69.57;101078.59;5058005;28;20041;-57
2022/08/04 08:19:30;;;;;;;14.77;8.35;;;;;;;25.30;69.39;101079.00;5053759;28;20120;-57
2022/08/04 08:21:55;;;;;;;13.77;8.82;;;;;;;25.36;68.78;101083.94;5061652;28;20047;-57
2022/08/04 08:24:21;;;;;;;17.08;7.50;;;;;;;25.43;68.58;101087.03;5073501;28;20036;-50
2022/08/04 08:26:46;;;;;;;13.07;7.20;;;;;;;25.59;68.28;101076.94;5053136;28;20121;-52
2022/08/04 08:29:12;;;;;;;11.13;7.15;;;;;;;25.78;66.46;101077.34;5053294;28;20476;-50
2022/08/04 08:31:37;;;;;;;14.85;6.72;;;;;;;25.93;66.40;101076.22;5053411;28;20079;-58
2022/08/04 08:34:03;;;;;;;10.73;5.75;;;;;;;26.07;65.27;101087.72;5053371;28;20037;-58
2022/08/04 08:36:44;;;;;;;10.18;4.72;;;;;;;26.14;64.75;101089.84;5053613;28;20052;-58
2022/08/04 08:39:17;;;;;;;7.30;3.67;;;;;;;26.21;63.32;101092.91;5053381;28;20170;-57
2022/08/04 08:41:57;;;;;;;6.40;3.63;;;;;;;26.23;62.03;101107.06;5053282;28;20037;-58
2022/08/04 08:44:55;;;;;;;8.05;3.88;;;;;;;26.33;62.53;101110.81;5052905;28;20128;-58
2022/08/04 08:47:23;;;;;;;7.97;3.58;;;;;;;26.33;61.93;101103.59;5052657;28;20033;-58
2022/08/04 08:50:01;;;;;;;7.38;3.40;;;;;;;26.37;61.66;101106.94;5053016;28;20032;-58
2022/08/04 08:53:00;;;;;;;9.73;3.72;;;;;;;26.42;62.46;101114.63;5052892;28;20099;-57
2022/08/04 08:55:39;;;;;;;9.90;3.20;;;;;;;26.32;60.42;101109.94;5053086;28;20102;-59
2022/08/04 08:58:29;;;;;;;7.13;2.78;;;;;;;26.43;61.45;101106.47;5053082;28;20040;-58
2022/08/04 09:01:08;;;;;;;8.45;2.80;;;;;;;26.52;60.58;101105.75;5052632;28;20029;-58
2022/08/04 09:03:57;;;;;;;7.80;2.72;;;;;;;26.68;59.90;101110.81;5052771;28;20444;-58
2022/08/04 09:06:37;;;;;;;8.73;2.50;;;;;;;26.86;59.29;101109.41;5052570;28;20535;-57
2022/08/04 09:09:29;;;;;;;8.90;2.60;;;;;;;27.24;57.64;101116.34;5051860;28;20032;-57
2022/08/04 09:12:04;;;;;;;;;;;;;;;27.80;58.50;101127.97;5053104;28;20707;-57
2022/08/04 09:14:44;;;;;;;7.70;2.35;;;;;;;28.24;55.51;101118.09;5052854;28;19923;-58
2022/08/04 09:17:26;;;;;;;8.15;2.15;;;;;;;28.40;54.58;101121.22;5052791;28;20133;-58
2022/08/04 09:20:06;;;;;;;6.53;2.33;;;;;;;28.31;53.97;101113.94;5052378;28;20510;-57
2022/08/04 09:22:41;;;;;;;7.05;2.50;;;;;;;28.39;54.69;101116.84;5052598;28;20094;-57
2022/08/04 09:25:24;;;;;;;5.43;2.17;;;;;;;28.51;53.96;101123.03;5052612;28;20499;-57
2022/08/04 09:27:54;;;;;;;8.93;3.08;;;;;;;28.74;53.58;101125.50;5052119;28;20053;-57
2022/08/04 09:30:26;;;;;;;8.38;2.65;;;;;;;28.65;52.68;101125.41;5052348;28;20060;-57
2022/08/04 09:33:03;;;;;;;6.50;2.55;;;;;;;28.61;52.65;101130.19;5052390;28;20037;-57
2022/08/04 09:35:44;;;;;;;8.85;2.03;;;;;;;28.57;52.43;101141.38;5052419;28;20094;-57
2022/08/04 09:38:18;;;;;;;6.50;2.10;;;;;;;28.31;51.94;101139.00;5052341;28;20032;-58
2022/08/04 09:40:53;;;;;;;9.18;2.25;;;;;;;28.01;50.84;101147.75;5052172;28;20036;-58
2022/08/04 09:43:35;;;;;;;5.78;1.55;;;;;;;27.90;51.13;101146.91;5052093;28;20043;-57
2022/08/04 09:46:18;;;;;;;5.90;1.63;;;;;;;27.80;52.32;101162.09;5052241;28;20110;-60
2022/08/04 09:49:01;;;;;;;8.30;1.60;;;;;;;27.83;52.28;101162.69;5052031;28;20574;-59
2022/08/04 09:51:55;;;;;;;5.90;1.67;;;;;;;27.89;51.86;101164.88;5051843;28;20365;-58
2022/08/04 09:54:27;;;;;;;9.55;2.22;;;;;;;27.77;51.27;101163.19;5051819;28;20043;-59
2022/08/04 09:57:06;;;;;;;9.93;2.15;;;;;;;27.72;51.67;101168.91;5051946;28;20072;-59
2022/08/04 09:59:37;;;;;;;6.10;1.90;;;;;;;27.59;52.15;101168.19;5051764;28;20033;-59
2022/08/04 10:02:08;;;;;;;6.50;1.92;;;;;;;27.60;52.66;101185.19;5051733;28;20040;-58
2022/08/04 10:04:38;;;;;;;6.88;2.30;;;;;;;27.39;53.00;101185.88;5051537;28;20039;-59
2022/08/04 10:07:23;;;;;;;8.38;2.40;;;;;;;27.15;54.09;101177.03;5051797;28;20036;-60
2022/08/04 10:10:00;;;;;;;9.68;2.10;;;;;;;26.90;55.49;101186.09;5051360;28;20037;-59
2022/08/04 10:13:04;;;;;;;10.00;2.38;;;;;;;26.70;56.20;101174.16;5051788;28;20404;-59
2022/08/04 10:15:45;;;;;;;9.52;2.90;;;;;;;26.47;57.40;101176.91;5051673;28;20044;-60
2022/08/04 10:18:34;;;;;;;7.93;2.78;;;;;;;26.25;58.95;101204.41;5051327;28;20033;-60
2022/08/04 10:21:14;;;;;;;11.43;2.75;;;;;;;26.03;60.03;101248.03;5051584;28;20145;-60
2022/08/04 10:23:57;;;;;;;9.43;2.30;;;;;;;25.74;61.24;101242.06;5051587;28;20349;-58
2022/08/04 10:26:30;;;;;;;7.57;2.92;;;;;;;25.75;62.42;101275.09;5051058;28;20040;-60
2022/08/04 10:29:17;;;;;;;7.97;3.28;;;;;;;25.55;66.05;101255.00;5051074;28;20491;-58
2022/08/04 10:31:54;;;;;;;11.57;3.00;;;;;;;24.87;73.09;101260.53;5051512;28;20050;-58
2022/08/04 10:34:23;;;;;;;11.20;3.38;;;;;;;24.24;78.77;101258.41;5051584;28;20372;-59
2022/08/04 10:37:05;;;;;;;10.98;3.20;;;;;;;23.78;80.05;101253.22;5051318;28;20033;-59
2022/08/04 10:40:35;;;;;;;11.80;3.67;;;;;;;23.44;83.84;101227.69;5051275;28;20041;-59
2022/08/04 10:42:36;;;;;;;7.97;3.78;;;;;;;23.14;87.77;101216.19;5051067;28;20052;-59
2022/08/04 10:45:13;;;;;;;10.10;3.50;;;;;;;22.82;91.43;101186.06;5051231;28;20047;-59
2022/08/04 10:47:49;;;;;;;8.15;4.10;;;;;;;22.61;95.86;101176.63;5051133;28;20032;-59
2022/08/04 10:50:18;;;;;;;11.15;4.43;;;;;;;22.41;99.47;101175.97;5051097;28;20042;-58
2022/08/04 10:52:53;;;;;;;13.68;4.13;;;;;;;22.45;100.00;101193.50;5051266;28;20041;-60
2022/08/04 10:55:26;;;;;;;9.60;4.68;;;;;;;22.69;100.00;101190.34;5051171;28;20055;-58
2022/08/04 10:57:58;;;;;;;10.57;4.65;;;;;;;23.21;100.00;101180.13;5051109;28;20037;-59
2022/08/04 11:00:27;;;;;;;9.57;4.18;;;;;;;23.80;99.09;101179.16;5051320;28;20065;-58
2022/08/04 11:03:00;;;;;;;11.23;4.53;;;;;;;24.38;94.35;101198.66;5050974;28;20441;-59
2022/08/04 11:05:34;;;;;;;9.10;4.03;;;;;;;24.70;91.02;101204.56;5051311;28;20047;-58
2022/08/04 11:08:04;;;;;;;11.98;4.20;;;;;;;24.80;87.60;101224.38;5050852;28;20029;-59
2022/08/04 11:10:34;;;;;;;9.07;3.72;;;;;;;24.76;87.33;101212.19;5050891;28;20474;-58
2022/08/04 11:13:05;;;;;;;8.52;3.45;;;;;;;24.66;84.79;101203.03;5051069;28;20068;-60
2022/08/04 11:15:38;;;;;;;8.85;3.60;;;;;;;24.61;85.72;101193.50;5051075;28;20036;-60
2022/08/04 11:18:17;;;;;;;7.90;4.35;;;;;;;24.58;83.99;101187.50;5050790;28;20355;-60
2022/08/04 11:21:02;;;;;;;7.32;4.25;;;;;;;24.41;83.74;101199.34;5055716;28;20381;-60
2022/08/04 11:23:33;;;;;;;11.05;4.20;;;;;;;24.45;85.04;101195.47;5070844;28;20048;-59
2022/08/04 11:26:14;;;;;;;8.30;4.95;;;;;;;24.50;84.49;101184.47;5071008;28;20089;-58
2022/08/04 11:29:11;;;;;;;7.38;4.60;;;;;;;24.67;83.92;101183.34;5070816;28;20139;-60
2022/08/04 11:31:42;;;;;;;7.00;4.20;;;;;;;24.90;83.21;101188.03;5073254;28;20065;-60
2022/08/04 11:34:26;;;;;;;8.38;5.03;;;;;;;25.10;80.21;101171.50;5074268;28;20119;-59
2022/08/04 11:37:21;;;;;;;9.10;4.43;;;;;;;25.46;78.92;101189.47;5074705;28;20039;-59
2022/08/04 11:39:57;;;;;;;9.45;4.68;;;;;;;25.62;78.07;101190.19;5072548;28;20051;-58
2022/08/04 11:42:27;;;;;;;8.75;4.05;;;;;;;25.90;77.58;101191.75;5074431;28;20033;-59
2022/08/04 11:45:14;;;;;;;7.80;3.55;;;;;;;26.21;75.53;101189.50;5074585;28;20119;-59
2022/08/04 11:48:00;;;;;;;7.68;2.75;;;;;;;26.28;71.66;101199.69;5074201;28;20459;-58
2022/08/04 11:50:37;;;;;;;4.35;2.40;;;;;;;26.37;69.39;101198.16;5074307;28;20081;-58
2022/08/04 11:53:04;;;;;;;6.93;2.55;;;;;;;26.49;68.82;101180.31;5074241;28;20101;-60
2022/08/04 11:55:31;;;;;;;5.63;2.92;;;;;;;26.26;66.84;101185.53;5074196;28;20115;-60
2022/08/04 11:57:56;;;;;;;5.25;2.80;;;;;;;26.16;66.97;101186.28;5074037;28;20111;-60
2022/08/04 12:00:24;;;;;;;6.53;3.00;;;;;;;26.16;67.94;101188.97;5073606;28;20052;-59
2022/08/04 12:03:14;;;;;;;9.15;3.03;;;;;;;26.28;69.26;101186.28;5074030;28;20047;-59